sensor_id;sensor_type;location;lat;lon;timestamp;P1;durP1;ratioP1;P2;durP2;ratioP2
7080;SDS011;3582;51.506;11.948;2023-11-18T00:00:04;2.70;;;2.50;;
7080;SDS011;3582;51.506;11.948;2023-11-18T00:02:36;3.78;;;3.45;;
7080;SDS011;3582;51.506;11.948;2023-11-18T00:05:03;2.90;;;2.70;;
7080;SDS011;3582;51.506;11.948;2023-11-18T00:07:29;2.65;;;2.38;;
7080;SDS011;3582;51.506;11.948;2023-11-18T00:09:57;2.90;;;2.55;;
7080;SDS011;3582;51.506;11.948;2023-11-18T00:12:23;2.67;;;2.43;;
7080;SDS011;3582;51.506;11.948;2023-11-18T00:14:49;2.97;;;2.65;;
7080;SDS011;3582;51.506;11.948;2023-11-18T00:17:15;4.97;;;3.10;;
7080;SDS011;3582;51.506;11.948;2023-11-18T00:19:41;2.50;;;2.30;;
7080;SDS011;3582;51.506;11.948;2023-11-18T00:22:08;4.78;;;3.55;;
7080;SDS011;3582;51.506;11.948;2023-11-18T00:24:34;4.00;;;2.40;;
7080;SDS011;3582;51.506;11.948;2023-11-18T00:27:00;3.05;;;2.80;;
7080;SDS011;3582;51.506;11.948;2023-11-18T00:29:32;3.30;;;3.05;;
7080;SDS011;3582;51.506;11.948;2023-11-18T00:31:59;4.03;;;3.60;;
7080;SDS011;3582;51.506;11.948;2023-11-18T00:34:25;5.40;;;4.50;;
7080;SDS011;3582;51.506;11.948;2023-11-18T00:36:51;7.55;;;4.90;;
7080;SDS011;3582;51.506;11.948;2023-11-18T00:39:17;5.93;;;4.15;;
7080;SDS011;3582;51.506;11.948;2023-11-18T00:41:43;8.50;;;5.15;;
7080;SDS011;3582;51.506;11.948;2023-11-18T00:44:09;4.82;;;4.18;;
7080;SDS011;3582;51.506;11.948;2023-11-18T00:46:35;8.57;;;4.10;;
7080;SDS011;3582;51.506;11.948;2023-11-18T00:49:01;4.53;;;4.00;;
7080;SDS011;3582;51.506;11.948;2023-11-18T00:51:27;6.07;;;3.90;;
7080;SDS011;3582;51.506;11.948;2023-11-18T00:53:53;4.93;;;4.27;;
7080;SDS011;3582;51.506;11.948;2023-11-18T00:56:20;7.38;;;4.60;;
7080;SDS011;3582;51.506;11.948;2023-11-18T00:58:46;4.75;;;4.35;;
7080;SDS011;3582;51.506;11.948;2023-11-18T01:01:12;6.45;;;4.15;;
7080;SDS011;3582;51.506;11.948;2023-11-18T01:03:38;5.80;;;4.67;;
7080;SDS011;3582;51.506;11.948;2023-11-18T01:06:04;5.55;;;4.30;;
7080;SDS011;3582;51.506;11.948;2023-11-18T01:08:31;4.95;;;3.55;;
7080;SDS011;3582;51.506;11.948;2023-11-18T01:10:57;4.80;;;4.30;;
7080;SDS011;3582;51.506;11.948;2023-11-18T01:13:23;5.43;;;4.97;;
7080;SDS011;3582;51.506;11.948;2023-11-18T01:15:51;5.63;;;5.13;;
7080;SDS011;3582;51.506;11.948;2023-11-18T01:18:17;7.70;;;4.00;;
7080;SDS011;3582;51.506;11.948;2023-11-18T01:20:43;4.80;;;4.17;;
7080;SDS011;3582;51.506;11.948;2023-11-18T01:23:09;6.63;;;5.60;;
7080;SDS011;3582;51.506;11.948;2023-11-18T01:25:35;6.10;;;5.23;;
7080;SDS011;3582;51.506;11.948;2023-11-18T01:28:01;6.00;;;4.10;;
7080;SDS011;3582;51.506;11.948;2023-11-18T01:30:28;8.48;;;4.25;;
7080;SDS011;3582;51.506;11.948;2023-11-18T01:32:54;4.63;;;4.03;;
7080;SDS011;3582;51.506;11.948;2023-11-18T01:35:21;4.93;;;4.28;;
7080;SDS011;3582;51.506;11.948;2023-11-18T01:37:51;4.55;;;4.15;;
7080;SDS011;3582;51.506;11.948;2023-11-18T01:40:17;4.70;;;4.23;;
7080;SDS011;3582;51.506;11.948;2023-11-18T01:42:44;5.75;;;4.55;;
7080;SDS011;3582;51.506;11.948;2023-11-18T01:45:11;5.65;;;4.90;;
7080;SDS011;3582;51.506;11.948;2023-11-18T01:47:37;5.63;;;4.97;;
7080;SDS011;3582;51.506;11.948;2023-11-18T01:50:03;4.68;;;4.28;;
7080;SDS011;3582;51.506;11.948;2023-11-18T01:52:31;6.18;;;4.60;;
7080;SDS011;3582;51.506;11.948;2023-11-18T01:54:58;11.18;;;5.00;;
7080;SDS011;3582;51.506;11.948;2023-11-18T01:57:25;5.38;;;4.85;;
7080;SDS011;3582;51.506;11.948;2023-11-18T01:59:52;6.85;;;4.53;;
7080;SDS011;3582;51.506;11.948;2023-11-18T02:02:19;5.53;;;5.00;;
7080;SDS011;3582;51.506;11.948;2023-11-18T02:04:48;4.82;;;4.00;;
7080;SDS011;3582;51.506;11.948;2023-11-18T02:07:14;6.78;;;5.15;;
7080;SDS011;3582;51.506;11.948;2023-11-18T02:09:40;5.18;;;3.78;;
7080;SDS011;3582;51.506;11.948;2023-11-18T02:14:34;7.13;;;6.07;;
7080;SDS011;3582;51.506;11.948;2023-11-18T02:17:03;5.50;;;3.90;;
7080;SDS011;3582;51.506;11.948;2023-11-18T02:19:30;4.22;;;3.85;;
7080;SDS011;3582;51.506;11.948;2023-11-18T02:21:56;5.57;;;4.18;;
7080;SDS011;3582;51.506;11.948;2023-11-18T02:26:52;5.40;;;4.40;;
7080;SDS011;3582;51.506;11.948;2023-11-18T02:29:18;6.70;;;4.40;;
7080;SDS011;3582;51.506;11.948;2023-11-18T02:31:44;5.07;;;3.67;;
7080;SDS011;3582;51.506;11.948;2023-11-18T02:34:14;4.40;;;3.97;;
7080;SDS011;3582;51.506;11.948;2023-11-18T02:36:43;5.80;;;4.93;;
7080;SDS011;3582;51.506;11.948;2023-11-18T02:39:24;6.20;;;4.25;;
7080;SDS011;3582;51.506;11.948;2023-11-18T02:41:53;4.65;;;4.07;;
7080;SDS011;3582;51.506;11.948;2023-11-18T02:44:21;8.32;;;5.15;;
7080;SDS011;3582;51.506;11.948;2023-11-18T02:46:48;11.60;;;6.10;;
7080;SDS011;3582;51.506;11.948;2023-11-18T02:49:14;6.75;;;6.10;;
7080;SDS011;3582;51.506;11.948;2023-11-18T02:51:43;4.93;;;4.50;;
7080;SDS011;3582;51.506;11.948;2023-11-18T02:54:12;6.13;;;4.65;;
7080;SDS011;3582;51.506;11.948;2023-11-18T02:56:38;6.72;;;4.65;;
7080;SDS011;3582;51.506;11.948;2023-11-18T02:59:05;5.88;;;4.88;;
7080;SDS011;3582;51.506;11.948;2023-11-18T03:01:32;5.20;;;4.70;;
7080;SDS011;3582;51.506;11.948;2023-11-18T03:03:58;11.00;;;4.90;;
7080;SDS011;3582;51.506;11.948;2023-11-18T03:06:24;5.20;;;4.75;;
7080;SDS011;3582;51.506;11.948;2023-11-18T03:08:51;5.53;;;4.50;;
7080;SDS011;3582;51.506;11.948;2023-11-18T03:11:17;8.82;;;4.80;;
7080;SDS011;3582;51.506;11.948;2023-11-18T03:13:44;6.53;;;5.18;;
7080;SDS011;3582;51.506;11.948;2023-11-18T03:16:11;5.72;;;4.10;;
7080;SDS011;3582;51.506;11.948;2023-11-18T03:18:41;4.70;;;4.20;;
7080;SDS011;3582;51.506;11.948;2023-11-18T03:21:11;7.00;;;5.15;;
7080;SDS011;3582;51.506;11.948;2023-11-18T03:23:37;4.82;;;4.32;;
7080;SDS011;3582;51.506;11.948;2023-11-18T03:26:04;7.15;;;5.18;;
7080;SDS011;3582;51.506;11.948;2023-11-18T03:28:30;6.80;;;5.15;;
7080;SDS011;3582;51.506;11.948;2023-11-18T03:30:56;6.32;;;5.70;;
7080;SDS011;3582;51.506;11.948;2023-11-18T03:33:22;5.67;;;5.13;;
7080;SDS011;3582;51.506;11.948;2023-11-18T03:35:48;7.30;;;5.70;;
7080;SDS011;3582;51.506;11.948;2023-11-18T03:38:14;10.65;;;5.07;;
7080;SDS011;3582;51.506;11.948;2023-11-18T03:40:42;5.85;;;5.35;;
7080;SDS011;3582;51.506;11.948;2023-11-18T03:43:10;6.63;;;5.82;;
7080;SDS011;3582;51.506;11.948;2023-11-18T03:45:38;17.10;;;5.93;;
7080;SDS011;3582;51.506;11.948;2023-11-18T03:48:05;9.10;;;6.35;;
7080;SDS011;3582;51.506;11.948;2023-11-18T03:50:31;6.72;;;4.85;;
7080;SDS011;3582;51.506;11.948;2023-11-18T03:52:57;6.18;;;5.57;;
7080;SDS011;3582;51.506;11.948;2023-11-18T03:55:23;6.00;;;5.40;;
7080;SDS011;3582;51.506;11.948;2023-11-18T03:57:51;10.77;;;8.60;;
7080;SDS011;3582;51.506;11.948;2023-11-18T04:00:17;8.45;;;5.47;;
7080;SDS011;3582;51.506;11.948;2023-11-18T04:02:45;10.45;;;7.22;;
7080;SDS011;3582;51.506;11.948;2023-11-18T04:05:11;8.93;;;5.65;;
7080;SDS011;3582;51.506;11.948;2023-11-18T04:07:37;6.78;;;5.82;;
7080;SDS011;3582;51.506;11.948;2023-11-18T04:10:03;6.28;;;5.45;;
7080;SDS011;3582;51.506;11.948;2023-11-18T04:12:35;8.30;;;5.78;;
7080;SDS011;3582;51.506;11.948;2023-11-18T04:15:01;6.55;;;5.90;;
7080;SDS011;3582;51.506;11.948;2023-11-18T04:17:29;8.35;;;6.80;;
7080;SDS011;3582;51.506;11.948;2023-11-18T04:19:55;7.68;;;6.75;;
7080;SDS011;3582;51.506;11.948;2023-11-18T04:22:22;9.80;;;7.20;;
7080;SDS011;3582;51.506;11.948;2023-11-18T04:24:48;7.72;;;6.70;;
7080;SDS011;3582;51.506;11.948;2023-11-18T04:27:14;8.63;;;6.43;;
7080;SDS011;3582;51.506;11.948;2023-11-18T04:29:40;7.85;;;6.05;;
7080;SDS011;3582;51.506;11.948;2023-11-18T04:32:07;8.80;;;6.75;;
7080;SDS011;3582;51.506;11.948;2023-11-18T04:34:38;11.82;;;8.48;;
7080;SDS011;3582;51.506;11.948;2023-11-18T04:37:07;13.38;;;8.82;;
7080;SDS011;3582;51.506;11.948;2023-11-18T04:39:33;9.60;;;8.30;;
7080;SDS011;3582;51.506;11.948;2023-11-18T04:41:59;11.77;;;8.90;;
7080;SDS011;3582;51.506;11.948;2023-11-18T04:44:26;12.25;;;8.52;;
7080;SDS011;3582;51.506;11.948;2023-11-18T04:46:52;9.55;;;7.50;;
7080;SDS011;3582;51.506;11.948;2023-11-18T04:49:18;10.48;;;8.68;;
7080;SDS011;3582;51.506;11.948;2023-11-18T04:51:44;14.03;;;9.93;;
7080;SDS011;3582;51.506;11.948;2023-11-18T04:54:10;14.63;;;10.55;;
7080;SDS011;3582;51.506;11.948;2023-11-18T04:56:36;16.15;;;11.18;;
7080;SDS011;3582;51.506;11.948;2023-11-18T04:59:03;14.82;;;11.90;;
7080;SDS011;3582;51.506;11.948;2023-11-18T05:01:32;18.23;;;13.10;;
7080;SDS011;3582;51.506;11.948;2023-11-18T05:03:58;18.58;;;13.93;;
7080;SDS011;3582;51.506;11.948;2023-11-18T05:06:24;22.35;;;14.50;;
7080;SDS011;3582;51.506;11.948;2023-11-18T05:08:51;21.05;;;13.75;;
7080;SDS011;3582;51.506;11.948;2023-11-18T05:11:17;26.48;;;14.68;;
7080;SDS011;3582;51.506;11.948;2023-11-18T05:13:42;19.30;;;14.60;;
7080;SDS011;3582;51.506;11.948;2023-11-18T05:16:08;15.00;;;11.97;;
7080;SDS011;3582;51.506;11.948;2023-11-18T05:18:37;18.33;;;14.23;;
7080;SDS011;3582;51.506;11.948;2023-11-18T05:21:04;19.77;;;13.60;;
7080;SDS011;3582;51.506;11.948;2023-11-18T05:23:30;20.00;;;16.15;;
7080;SDS011;3582;51.506;11.948;2023-11-18T05:25:57;27.95;;;16.40;;
7080;SDS011;3582;51.506;11.948;2023-11-18T05:28:26;22.30;;;17.15;;
7080;SDS011;3582;51.506;11.948;2023-11-18T05:30:52;22.63;;;15.68;;
7080;SDS011;3582;51.506;11.948;2023-11-18T05:33:22;26.88;;;16.58;;
7080;SDS011;3582;51.506;11.948;2023-11-18T05:35:48;25.90;;;16.30;;
7080;SDS011;3582;51.506;11.948;2023-11-18T05:38:18;25.88;;;16.20;;
7080;SDS011;3582;51.506;11.948;2023-11-18T05:40:46;19.42;;;14.10;;
7080;SDS011;3582;51.506;11.948;2023-11-18T05:43:23;26.65;;;16.58;;
7080;SDS011;3582;51.506;11.948;2023-11-18T05:45:51;24.70;;;15.30;;
7080;SDS011;3582;51.506;11.948;2023-11-18T05:48:35;23.63;;;14.70;;
7080;SDS011;3582;51.506;11.948;2023-11-18T05:51:01;24.80;;;17.35;;
7080;SDS011;3582;51.506;11.948;2023-11-18T05:53:27;17.48;;;14.43;;
7080;SDS011;3582;51.506;11.948;2023-11-18T05:55:54;24.08;;;16.77;;
7080;SDS011;3582;51.506;11.948;2023-11-18T05:58:20;18.50;;;15.52;;
7080;SDS011;3582;51.506;11.948;2023-11-18T06:00:46;20.10;;;13.20;;
7080;SDS011;3582;51.506;11.948;2023-11-18T06:03:12;25.90;;;16.50;;
7080;SDS011;3582;51.506;11.948;2023-11-18T06:05:39;26.25;;;16.55;;
7080;SDS011;3582;51.506;11.948;2023-11-18T06:08:05;20.90;;;15.80;;
7080;SDS011;3582;51.506;11.948;2023-11-18T06:10:32;25.48;;;17.33;;
7080;SDS011;3582;51.506;11.948;2023-11-18T06:12:59;20.10;;;16.05;;
7080;SDS011;3582;51.506;11.948;2023-11-18T06:15:25;26.88;;;16.73;;
7080;SDS011;3582;51.506;11.948;2023-11-18T06:17:52;23.83;;;15.73;;
7080;SDS011;3582;51.506;11.948;2023-11-18T06:20:20;24.30;;;18.10;;
7080;SDS011;3582;51.506;11.948;2023-11-18T06:22:48;24.48;;;17.42;;
7080;SDS011;3582;51.506;11.948;2023-11-18T06:25:14;23.93;;;16.73;;
7080;SDS011;3582;51.506;11.948;2023-11-18T06:27:42;21.67;;;17.23;;
7080;SDS011;3582;51.506;11.948;2023-11-18T06:30:10;23.33;;;16.83;;
7080;SDS011;3582;51.506;11.948;2023-11-18T06:32:37;23.10;;;16.13;;
7080;SDS011;3582;51.506;11.948;2023-11-18T06:35:04;27.77;;;16.23;;
7080;SDS011;3582;51.506;11.948;2023-11-18T06:37:34;26.35;;;17.20;;
7080;SDS011;3582;51.506;11.948;2023-11-18T06:40:00;25.83;;;18.48;;
7080;SDS011;3582;51.506;11.948;2023-11-18T06:42:26;21.93;;;17.80;;
7080;SDS011;3582;51.506;11.948;2023-11-18T06:44:52;20.60;;;16.55;;
7080;SDS011;3582;51.506;11.948;2023-11-18T06:47:18;25.90;;;17.75;;
7080;SDS011;3582;51.506;11.948;2023-11-18T06:49:44;26.70;;;17.13;;
7080;SDS011;3582;51.506;11.948;2023-11-18T06:52:12;26.23;;;17.58;;
7080;SDS011;3582;51.506;11.948;2023-11-18T06:54:40;26.33;;;18.07;;
7080;SDS011;3582;51.506;11.948;2023-11-18T06:57:06;28.40;;;17.67;;
7080;SDS011;3582;51.506;11.948;2023-11-18T06:59:32;30.30;;;17.30;;
7080;SDS011;3582;51.506;11.948;2023-11-18T07:01:59;29.20;;;19.85;;
7080;SDS011;3582;51.506;11.948;2023-11-18T07:04:25;32.17;;;18.73;;
7080;SDS011;3582;51.506;11.948;2023-11-18T07:06:51;26.47;;;16.57;;
7080;SDS011;3582;51.506;11.948;2023-11-18T07:09:17;26.42;;;17.17;;
7080;SDS011;3582;51.506;11.948;2023-11-18T07:11:45;27.17;;;18.05;;
7080;SDS011;3582;51.506;11.948;2023-11-18T07:14:12;27.50;;;18.50;;
7080;SDS011;3582;51.506;11.948;2023-11-18T07:16:40;29.70;;;19.80;;
7080;SDS011;3582;51.506;11.948;2023-11-18T07:19:06;33.33;;;21.13;;
7080;SDS011;3582;51.506;11.948;2023-11-18T07:21:32;27.92;;;19.85;;
7080;SDS011;3582;51.506;11.948;2023-11-18T07:23:59;25.15;;;17.65;;
7080;SDS011;3582;51.506;11.948;2023-11-18T07:26:25;31.42;;;19.80;;
7080;SDS011;3582;51.506;11.948;2023-11-18T07:28:51;30.85;;;20.00;;
7080;SDS011;3582;51.506;11.948;2023-11-18T07:31:17;28.87;;;19.53;;
7080;SDS011;3582;51.506;11.948;2023-11-18T07:33:44;29.20;;;19.58;;
7080;SDS011;3582;51.506;11.948;2023-11-18T07:36:13;28.35;;;18.50;;
7080;SDS011;3582;51.506;11.948;2023-11-18T07:38:40;28.15;;;20.58;;
7080;SDS011;3582;51.506;11.948;2023-11-18T07:41:06;28.90;;;21.37;;
7080;SDS011;3582;51.506;11.948;2023-11-18T07:43:33;23.95;;;18.38;;
7080;SDS011;3582;51.506;11.948;2023-11-18T07:46:01;28.02;;;18.88;;
7080;SDS011;3582;51.506;11.948;2023-11-18T07:48:27;25.02;;;17.58;;
7080;SDS011;3582;51.506;11.948;2023-11-18T07:50:53;21.73;;;17.40;;
7080;SDS011;3582;51.506;11.948;2023-11-18T07:53:19;27.07;;;19.23;;
7080;SDS011;3582;51.506;11.948;2023-11-18T07:55:45;23.38;;;17.35;;
7080;SDS011;3582;51.506;11.948;2023-11-18T07:58:15;24.88;;;17.38;;
7080;SDS011;3582;51.506;11.948;2023-11-18T08:00:43;22.75;;;17.00;;
7080;SDS011;3582;51.506;11.948;2023-11-18T08:03:12;24.30;;;17.42;;
7080;SDS011;3582;51.506;11.948;2023-11-18T08:08:05;26.43;;;17.90;;
7080;SDS011;3582;51.506;11.948;2023-11-18T08:10:32;25.25;;;18.70;;
7080;SDS011;3582;51.506;11.948;2023-11-18T08:12:58;25.60;;;17.70;;
7080;SDS011;3582;51.506;11.948;2023-11-18T08:15:24;24.58;;;18.33;;
7080;SDS011;3582;51.506;11.948;2023-11-18T08:17:52;28.75;;;19.90;;
7080;SDS011;3582;51.506;11.948;2023-11-18T08:20:18;25.65;;;18.25;;
7080;SDS011;3582;51.506;11.948;2023-11-18T08:22:48;24.83;;;18.63;;
7080;SDS011;3582;51.506;11.948;2023-11-18T08:25:14;25.87;;;17.70;;
7080;SDS011;3582;51.506;11.948;2023-11-18T08:27:42;28.13;;;21.02;;
7080;SDS011;3582;51.506;11.948;2023-11-18T08:30:10;25.27;;;20.73;;
7080;SDS011;3582;51.506;11.948;2023-11-18T08:32:37;30.63;;;18.48;;
7080;SDS011;3582;51.506;11.948;2023-11-18T08:35:05;31.85;;;18.77;;
7080;SDS011;3582;51.506;11.948;2023-11-18T08:37:32;25.00;;;18.63;;
7080;SDS011;3582;51.506;11.948;2023-11-18T08:40:00;27.95;;;19.83;;
7080;SDS011;3582;51.506;11.948;2023-11-18T08:42:26;27.20;;;19.00;;
7080;SDS011;3582;51.506;11.948;2023-11-18T08:44:52;25.00;;;18.05;;
7080;SDS011;3582;51.506;11.948;2023-11-18T08:47:20;24.05;;;17.92;;
7080;SDS011;3582;51.506;11.948;2023-11-18T08:49:46;24.77;;;17.55;;
7080;SDS011;3582;51.506;11.948;2023-11-18T08:52:12;26.40;;;18.80;;
7080;SDS011;3582;51.506;11.948;2023-11-18T08:54:38;21.37;;;17.20;;
7080;SDS011;3582;51.506;11.948;2023-11-18T08:57:25;21.80;;;18.67;;
7080;SDS011;3582;51.506;11.948;2023-11-18T08:59:51;23.00;;;17.83;;
7080;SDS011;3582;51.506;11.948;2023-11-18T09:02:17;26.30;;;19.08;;
7080;SDS011;3582;51.506;11.948;2023-11-18T09:04:48;30.63;;;17.80;;
7080;SDS011;3582;51.506;11.948;2023-11-18T09:07:14;24.58;;;17.73;;
7080;SDS011;3582;51.506;11.948;2023-11-18T09:09:40;25.80;;;19.03;;
7080;SDS011;3582;51.506;11.948;2023-11-18T09:12:06;27.47;;;19.10;;
7080;SDS011;3582;51.506;11.948;2023-11-18T09:14:33;26.25;;;17.90;;
7080;SDS011;3582;51.506;11.948;2023-11-18T09:16:59;24.60;;;16.63;;
7080;SDS011;3582;51.506;11.948;2023-11-18T09:19:27;25.88;;;18.13;;
7080;SDS011;3582;51.506;11.948;2023-11-18T09:21:53;24.25;;;18.30;;
7080;SDS011;3582;51.506;11.948;2023-11-18T09:24:20;24.70;;;19.13;;
7080;SDS011;3582;51.506;11.948;2023-11-18T09:26:49;26.75;;;19.58;;
7080;SDS011;3582;51.506;11.948;2023-11-18T09:29:18;27.70;;;18.80;;
7080;SDS011;3582;51.506;11.948;2023-11-18T09:31:49;27.40;;;20.92;;
7080;SDS011;3582;51.506;11.948;2023-11-18T09:34:15;26.90;;;19.20;;
7080;SDS011;3582;51.506;11.948;2023-11-18T09:36:44;26.67;;;19.73;;
7080;SDS011;3582;51.506;11.948;2023-11-18T09:39:13;28.52;;;19.80;;
7080;SDS011;3582;51.506;11.948;2023-11-18T09:41:54;32.95;;;18.27;;
7080;SDS011;3582;51.506;11.948;2023-11-18T09:44:21;27.60;;;19.40;;
7080;SDS011;3582;51.506;11.948;2023-11-18T09:46:48;26.92;;;20.15;;
7080;SDS011;3582;51.506;11.948;2023-11-18T09:49:26;28.83;;;19.63;;
7080;SDS011;3582;51.506;11.948;2023-11-18T09:51:58;27.92;;;19.33;;
7080;SDS011;3582;51.506;11.948;2023-11-18T10:02:09;26.67;;;18.05;;
7080;SDS011;3582;51.506;11.948;2023-11-18T10:04:39;24.85;;;16.88;;
7080;SDS011;3582;51.506;11.948;2023-11-18T10:07:05;26.88;;;18.95;;
7080;SDS011;3582;51.506;11.948;2023-11-18T10:09:36;23.38;;;17.55;;
7080;SDS011;3582;51.506;11.948;2023-11-18T10:12:04;26.75;;;16.52;;
7080;SDS011;3582;51.506;11.948;2023-11-18T10:14:36;24.77;;;16.83;;
7080;SDS011;3582;51.506;11.948;2023-11-18T10:17:07;19.65;;;15.18;;
7080;SDS011;3582;51.506;11.948;2023-11-18T10:19:49;22.23;;;18.08;;
7080;SDS011;3582;51.506;11.948;2023-11-18T10:22:28;22.23;;;17.02;;
7080;SDS011;3582;51.506;11.948;2023-11-18T10:24:57;22.27;;;16.60;;
7080;SDS011;3582;51.506;11.948;2023-11-18T10:27:26;22.30;;;17.15;;
7080;SDS011;3582;51.506;11.948;2023-11-18T10:30:03;18.75;;;16.52;;
7080;SDS011;3582;51.506;11.948;2023-11-18T10:32:29;22.88;;;16.50;;
7080;SDS011;3582;51.506;11.948;2023-11-18T10:35:00;18.85;;;15.50;;
7080;SDS011;3582;51.506;11.948;2023-11-18T10:37:27;24.83;;;18.40;;
7080;SDS011;3582;51.506;11.948;2023-11-18T10:39:55;25.60;;;15.55;;
7080;SDS011;3582;51.506;11.948;2023-11-18T10:42:22;23.05;;;16.90;;
7080;SDS011;3582;51.506;11.948;2023-11-18T10:44:54;20.45;;;14.60;;
7080;SDS011;3582;51.506;11.948;2023-11-18T10:47:26;28.30;;;15.90;;
7080;SDS011;3582;51.506;11.948;2023-11-18T10:49:53;21.85;;;15.95;;
7080;SDS011;3582;51.506;11.948;2023-11-18T10:52:21;19.10;;;13.98;;
7080;SDS011;3582;51.506;11.948;2023-11-18T10:54:54;14.77;;;12.35;;
7080;SDS011;3582;51.506;11.948;2023-11-18T10:57:21;17.10;;;12.95;;
7080;SDS011;3582;51.506;11.948;2023-11-18T11:00:01;15.63;;;11.80;;
7080;SDS011;3582;51.506;11.948;2023-11-18T11:02:31;15.57;;;13.98;;
7080;SDS011;3582;51.506;11.948;2023-11-18T11:05:04;21.83;;;13.80;;
7080;SDS011;3582;51.506;11.948;2023-11-18T11:07:31;16.92;;;15.10;;
7080;SDS011;3582;51.506;11.948;2023-11-18T11:09:59;24.58;;;17.75;;
7080;SDS011;3582;51.506;11.948;2023-11-18T11:12:29;16.08;;;13.77;;
7080;SDS011;3582;51.506;11.948;2023-11-18T11:15:01;16.73;;;13.85;;
7080;SDS011;3582;51.506;11.948;2023-11-18T11:17:29;16.50;;;14.73;;
7080;SDS011;3582;51.506;11.948;2023-11-18T11:20:07;18.50;;;14.50;;
7080;SDS011;3582;51.506;11.948;2023-11-18T11:25:34;21.40;;;15.40;;
7080;SDS011;3582;51.506;11.948;2023-11-18T11:30:40;16.17;;;12.93;;
7080;SDS011;3582;51.506;11.948;2023-11-18T11:35:54;16.67;;;14.50;;
7080;SDS011;3582;51.506;11.948;2023-11-18T11:38:24;22.67;;;15.68;;
7080;SDS011;3582;51.506;11.948;2023-11-18T11:40:54;16.85;;;13.32;;
7080;SDS011;3582;51.506;11.948;2023-11-18T11:43:21;15.90;;;14.13;;
7080;SDS011;3582;51.506;11.948;2023-11-18T11:45:48;17.42;;;13.95;;
7080;SDS011;3582;51.506;11.948;2023-11-18T11:48:16;20.02;;;15.65;;
7080;SDS011;3582;51.506;11.948;2023-11-18T11:51:11;17.75;;;13.38;;
7080;SDS011;3582;51.506;11.948;2023-11-18T11:53:49;18.73;;;12.80;;
7080;SDS011;3582;51.506;11.948;2023-11-18T11:56:17;16.92;;;11.35;;
7080;SDS011;3582;51.506;11.948;2023-11-18T11:58:49;18.58;;;13.35;;
7080;SDS011;3582;51.506;11.948;2023-11-18T12:03:45;19.20;;;14.23;;
7080;SDS011;3582;51.506;11.948;2023-11-18T12:06:13;17.52;;;14.00;;
7080;SDS011;3582;51.506;11.948;2023-11-18T12:08:41;16.00;;;12.98;;
7080;SDS011;3582;51.506;11.948;2023-11-18T12:11:07;18.85;;;13.30;;
7080;SDS011;3582;51.506;11.948;2023-11-18T12:13:34;17.02;;;13.68;;
7080;SDS011;3582;51.506;11.948;2023-11-18T12:16:04;17.73;;;13.43;;
7080;SDS011;3582;51.506;11.948;2023-11-18T12:18:30;13.98;;;11.43;;
7080;SDS011;3582;51.506;11.948;2023-11-18T12:20:59;15.07;;;11.65;;
7080;SDS011;3582;51.506;11.948;2023-11-18T12:23:28;12.90;;;10.38;;
7080;SDS011;3582;51.506;11.948;2023-11-18T12:25:55;11.48;;;9.57;;
7080;SDS011;3582;51.506;11.948;2023-11-18T12:28:26;20.25;;;10.70;;
7080;SDS011;3582;51.506;11.948;2023-11-18T12:30:53;13.93;;;11.40;;
7080;SDS011;3582;51.506;11.948;2023-11-18T12:33:24;12.32;;;9.75;;
7080;SDS011;3582;51.506;11.948;2023-11-18T12:46:53;11.57;;;10.43;;
7080;SDS011;3582;51.506;11.948;2023-11-18T12:49:36;14.82;;;9.20;;
7080;SDS011;3582;51.506;11.948;2023-11-18T12:52:06;12.05;;;9.13;;
7080;SDS011;3582;51.506;11.948;2023-11-18T12:54:33;13.02;;;8.60;;
7080;SDS011;3582;51.506;11.948;2023-11-18T12:57:02;8.30;;;7.40;;
7080;SDS011;3582;51.506;11.948;2023-11-18T12:59:31;10.38;;;8.07;;
7080;SDS011;3582;51.506;11.948;2023-11-18T13:01:57;7.25;;;6.65;;
7080;SDS011;3582;51.506;11.948;2023-11-18T13:04:23;7.80;;;6.57;;
7080;SDS011;3582;51.506;11.948;2023-11-18T13:06:50;11.43;;;7.40;;
7080;SDS011;3582;51.506;11.948;2023-11-18T13:09:18;8.45;;;7.45;;
7080;SDS011;3582;51.506;11.948;2023-11-18T13:11:53;11.93;;;8.55;;
7080;SDS011;3582;51.506;11.948;2023-11-18T13:14:27;9.18;;;7.22;;
7080;SDS011;3582;51.506;11.948;2023-11-18T13:16:53;9.95;;;7.57;;
7080;SDS011;3582;51.506;11.948;2023-11-18T13:19:24;9.20;;;7.30;;
7080;SDS011;3582;51.506;11.948;2023-11-18T13:21:51;8.63;;;7.80;;
7080;SDS011;3582;51.506;11.948;2023-11-18T13:24:17;10.63;;;8.98;;
7080;SDS011;3582;51.506;11.948;2023-11-18T13:26:43;8.73;;;7.57;;
7080;SDS011;3582;51.506;11.948;2023-11-18T13:29:09;8.30;;;7.50;;
7080;SDS011;3582;51.506;11.948;2023-11-18T13:31:35;15.07;;;9.80;;
7080;SDS011;3582;51.506;11.948;2023-11-18T13:34:01;13.30;;;9.30;;
7080;SDS011;3582;51.506;11.948;2023-11-18T13:36:28;11.30;;;8.05;;
7080;SDS011;3582;51.506;11.948;2023-11-18T13:38:55;11.45;;;8.77;;
7080;SDS011;3582;51.506;11.948;2023-11-18T13:41:28;12.70;;;9.10;;
7080;SDS011;3582;51.506;11.948;2023-11-18T13:43:54;12.48;;;9.40;;
7080;SDS011;3582;51.506;11.948;2023-11-18T13:46:21;12.00;;;9.20;;
7080;SDS011;3582;51.506;11.948;2023-11-18T13:48:48;21.70;;;9.57;;
7080;SDS011;3582;51.506;11.948;2023-11-18T13:51:14;12.30;;;9.75;;
7080;SDS011;3582;51.506;11.948;2023-11-18T13:53:41;12.43;;;10.18;;
7080;SDS011;3582;51.506;11.948;2023-11-18T13:56:09;10.18;;;9.15;;
7080;SDS011;3582;51.506;11.948;2023-11-18T13:58:35;12.27;;;10.05;;
7080;SDS011;3582;51.506;11.948;2023-11-18T14:01:04;12.68;;;9.57;;
7080;SDS011;3582;51.506;11.948;2023-11-18T14:03:31;19.75;;;11.20;;
7080;SDS011;3582;51.506;11.948;2023-11-18T14:05:57;16.80;;;9.53;;
7080;SDS011;3582;51.506;11.948;2023-11-18T14:08:27;13.77;;;9.50;;
7080;SDS011;3582;51.506;11.948;2023-11-18T14:10:53;15.07;;;11.20;;
7080;SDS011;3582;51.506;11.948;2023-11-18T14:13:19;19.65;;;10.85;;
7080;SDS011;3582;51.506;11.948;2023-11-18T14:15:47;11.57;;;9.63;;
7080;SDS011;3582;51.506;11.948;2023-11-18T14:18:13;13.18;;;10.07;;
7080;SDS011;3582;51.506;11.948;2023-11-18T14:20:39;14.10;;;8.80;;
7080;SDS011;3582;51.506;11.948;2023-11-18T14:23:05;17.52;;;11.00;;
7080;SDS011;3582;51.506;11.948;2023-11-18T14:25:32;15.32;;;10.45;;
7080;SDS011;3582;51.506;11.948;2023-11-18T14:27:58;16.05;;;9.95;;
7080;SDS011;3582;51.506;11.948;2023-11-18T14:30:24;14.93;;;9.73;;
7080;SDS011;3582;51.506;11.948;2023-11-18T14:32:54;13.32;;;8.75;;
7080;SDS011;3582;51.506;11.948;2023-11-18T14:35:20;10.90;;;9.05;;
7080;SDS011;3582;51.506;11.948;2023-11-18T14:37:47;10.00;;;8.52;;
7080;SDS011;3582;51.506;11.948;2023-11-18T14:40:13;15.17;;;9.40;;
7080;SDS011;3582;51.506;11.948;2023-11-18T14:42:43;12.85;;;9.93;;
7080;SDS011;3582;51.506;11.948;2023-11-18T14:45:10;16.50;;;9.95;;
7080;SDS011;3582;51.506;11.948;2023-11-18T14:47:38;13.50;;;9.65;;
7080;SDS011;3582;51.506;11.948;2023-11-18T14:50:04;11.30;;;9.77;;
7080;SDS011;3582;51.506;11.948;2023-11-18T14:52:40;12.82;;;10.02;;
7080;SDS011;3582;51.506;11.948;2023-11-18T14:55:06;11.05;;;8.75;;
7080;SDS011;3582;51.506;11.948;2023-11-18T14:57:37;13.32;;;9.25;;
7080;SDS011;3582;51.506;11.948;2023-11-18T15:00:03;12.23;;;9.70;;
7080;SDS011;3582;51.506;11.948;2023-11-18T15:02:32;11.27;;;9.98;;
7080;SDS011;3582;51.506;11.948;2023-11-18T15:04:59;15.98;;;11.27;;
7080;SDS011;3582;51.506;11.948;2023-11-18T15:07:28;11.63;;;9.95;;
7080;SDS011;3582;51.506;11.948;2023-11-18T15:09:54;11.10;;;9.85;;
7080;SDS011;3582;51.506;11.948;2023-11-18T15:12:20;11.73;;;10.00;;
7080;SDS011;3582;51.506;11.948;2023-11-18T15:14:46;13.53;;;10.87;;
7080;SDS011;3582;51.506;11.948;2023-11-18T15:17:12;13.73;;;11.50;;
7080;SDS011;3582;51.506;11.948;2023-11-18T15:19:39;13.13;;;10.93;;
7080;SDS011;3582;51.506;11.948;2023-11-18T15:22:05;13.15;;;11.73;;
7080;SDS011;3582;51.506;11.948;2023-11-18T15:24:31;13.07;;;11.03;;